Time;durP1;ratioP1;P1;durP2;ratioP2;P2;SDS_P1;SDS_P2;PMS_P1;PMS_P2;Temp;Humidity;BMP_temperature;BMP_pressure;BME280_temperature;BME280_humidity;BME280_pressure;Samples;Min_cycle;Max_cycle;Signal;HPM_P1;HPM_P2
2022/04/15 00:00:57;;;;;;;57.15;49.13;;;28.30;90.50;;;;;;1894100;74;21131;-82
2022/04/15 00:03:30;;;;;;;57.58;49.05;;;28.30;90.70;;;;;;1896689;75;21596;-82
2022/04/15 00:06:01;;;;;;;55.48;48.87;;;28.30;90.60;;;;;;1898747;75;21203;-81
2022/04/15 00:08:34;;;;;;;57.13;49.45;;;28.30;91.20;;;;;;1896606;75;21097;-81
2022/04/15 00:11:05;;;;;;;55.85;49.85;;;28.30;91.50;;;;;;1864696;75;21142;-81
2022/04/15 00:13:38;;;;;;;58.15;49.63;;;28.30;91.50;;;;;;1887510;75;21076;-81
2022/04/15 00:16:11;;;;;;;57.03;48.98;;;28.30;90.50;;;;;;1899425;75;21090;-82
2022/04/15 00:18:43;;;;;;;56.00;49.73;;;28.30;90.80;;;;;;1900996;75;21223;-83
2022/04/15 00:21:16;;;;;;;60.00;49.38;;;28.30;90.70;;;;;;1895662;75;21682;-81
2022/04/15 00:23:48;;;;;;;53.48;47.60;;;28.30;91.20;;;;;;1899950;75;21086;-81
2022/04/15 00:26:19;;;;;;;57.38;48.73;;;28.30;91.10;;;;;;1888649;75;21081;-82
2022/04/15 00:28:52;;;;;;;55.20;49.13;;;28.40;91.30;;;;;;1872090;77;21210;-82
2022/04/15 00:31:22;;;;;;;58.75;49.73;;;28.40;91.10;;;;;;1891598;75;21210;-82
2022/04/15 00:33:53;;;;;;;58.35;50.52;;;28.40;91.40;;;;;;1879016;75;21083;-81
2022/04/15 00:36:24;;;;;;;55.30;49.05;;;28.40;91.20;;;;;;1880566;74;21107;-82
2022/04/15 00:38:55;;;;;;;56.75;48.98;;;28.40;91.20;;;;;;1875865;74;21096;-82
2022/04/15 00:41:26;;;;;;;55.80;49.27;;;28.40;91.20;;;;;;1892030;74;21147;-81
2022/04/15 00:43:58;;;;;;;60.50;51.48;;;28.50;91.00;;;;;;1880830;75;21105;-82
2022/04/15 00:46:29;;;;;;;59.73;48.85;;;28.50;90.70;;;;;;1880645;74;21085;-82
2022/04/15 00:49:02;;;;;;;59.30;49.03;;;28.60;91.20;;;;;;1894186;74;21582;-81
2022/04/15 00:51:36;;;;;;;57.13;50.50;;;28.60;91.00;;;;;;1880077;75;21139;-83
2022/04/15 00:54:11;;;;;;;53.45;47.58;;;28.60;91.40;;;;;;1887797;74;21185;-81
2022/04/15 00:56:42;;;;;;;57.33;49.27;;;28.60;90.90;;;;;;1893048;75;21087;-82
2022/04/15 00:59:14;;;;;;;57.78;49.73;;;28.70;90.40;;;;;;1896369;75;21057;-82
2022/04/15 01:01:47;;;;;;;54.53;48.60;;;28.70;90.60;;;;;;1893959;75;21227;-82
2022/04/15 01:04:21;;;;;;;59.15;51.28;;;28.70;90.70;;;;;;1885216;75;21163;-82
2022/04/15 01:06:53;;;;;;;58.28;48.68;;;28.80;91.00;;;;;;1901055;75;21091;-82
2022/04/15 01:09:29;;;;;;;59.23;49.13;;;28.80;91.10;;;;;;1899740;74;21141;-82
2022/04/15 01:12:01;;;;;;;54.77;48.75;;;28.80;90.60;;;;;;1882316;75;21086;-82
2022/04/15 01:14:34;;;;;;;54.03;48.10;;;28.80;90.70;;;;;;1897229;75;21161;-82
2022/04/15 01:17:05;;;;;;;58.90;49.30;;;28.90;91.10;;;;;;1901878;75;21052;-83
2022/04/15 01:19:36;;;;;;;55.23;48.42;;;28.90;91.00;;;;;;1889424;75;21185;-83
2022/04/15 01:22:09;;;;;;;59.20;50.00;;;28.90;91.10;;;;;;1872771;75;21178;-82
2022/04/15 01:24:40;;;;;;;55.52;48.65;;;28.90;91.00;;;;;;1891629;75;21132;-83
2022/04/15 01:27:11;;;;;;;55.15;49.30;;;28.90;91.10;;;;;;1894999;75;21149;-82
2022/04/15 01:29:42;;;;;;;53.42;47.60;;;28.90;91.10;;;;;;1887957;75;21551;-82
2022/04/15 01:32:13;;;;;;;51.48;45.95;;;28.90;90.90;;;;;;1888973;75;21169;-83
2022/04/15 01:34:47;;;;;;;55.38;46.42;;;28.90;90.90;;;;;;1882367;74;21083;-83
2022/04/15 01:37:20;;;;;;;54.98;46.58;;;29.00;90.90;;;;;;1883313;75;21098;-84
2022/04/15 01:39:53;;;;;;;56.20;48.15;;;29.00;90.90;;;;;;1899334;75;21582;-82
2022/04/15 01:42:25;;;;;;;53.68;47.88;;;29.00;91.00;;;;;;1899521;75;21548;-84
2022/04/15 01:44:56;;;;;;;53.08;47.38;;;29.10;91.10;;;;;;1891427;75;21245;-81
2022/04/15 01:47:28;;;;;;;52.88;46.30;;;29.10;90.90;;;;;;1878286;75;21124;-81
2022/04/15 01:49:59;;;;;;;51.68;46.02;;;29.10;90.50;;;;;;1890324;75;21647;-83
2022/04/15 01:52:30;;;;;;;55.25;46.37;;;29.20;90.50;;;;;;1887503;75;21077;-82
2022/04/15 01:55:01;;;;;;;56.00;48.25;;;29.20;90.30;;;;;;1881047;75;21157;-82
2022/04/15 01:57:32;;;;;;;57.45;48.85;;;29.20;90.50;;;;;;1896395;75;21060;-83
2022/04/15 02:00:04;;;;;;;53.10;47.38;;;29.30;90.60;;;;;;1875628;74;21218;-84
2022/04/15 02:02:35;;;;;;;52.73;45.80;;;29.30;90.30;;;;;;1889298;75;21113;-82
2022/04/15 02:05:06;;;;;;;51.00;43.50;;;29.40;90.30;;;;;;1876121;75;21152;-82
2022/04/15 02:07:37;;;;;;;51.10;44.23;;;29.40;90.00;;;;;;1879002;75;21124;-82
2022/04/15 02:10:11;;;;;;;53.30;47.48;;;29.40;90.00;;;;;;1890247;74;21127;-82
2022/04/15 02:12:42;;;;;;;53.00;45.60;;;29.40;90.20;;;;;;1885667;75;21141;-82
2022/04/15 02:15:13;;;;;;;51.73;45.45;;;29.50;90.20;;;;;;1902508;75;21538;-82
2022/04/15 02:17:44;;;;;;;53.17;45.92;;;29.50;90.00;;;;;;1906635;75;21088;-83
2022/04/15 02:20:15;;;;;;;49.08;42.08;;;29.60;90.00;;;;;;1887452;75;21194;-82
2022/04/15 02:22:45;;;;;;;49.88;43.70;;;29.70;89.30;;;;;;1910586;74;21089;-82
2022/04/15 02:25:16;;;;;;;47.80;42.38;;;29.70;88.70;;;;;;1903476;75;21372;-82
2022/04/15 02:27:50;;;;;;;53.83;43.92;;;29.80;88.20;;;;;;1891066;74;21591;-82
2022/04/15 02:30:21;;;;;;;51.35;43.15;;;29.90;88.10;;;;;;1890889;75;21086;-82
2022/04/15 02:32:52;;;;;;;50.03;42.73;;;30.00;87.50;;;;;;1903390;75;21166;-80
2022/04/15 02:35:24;;;;;;;51.63;44.75;;;30.00;86.90;;;;;;1846545;76;21158;-82
2022/04/15 02:37:55;;;;;;;49.35;43.60;;;30.00;87.00;;;;;;1908817;75;21195;-82
2022/04/15 02:40:26;;;;;;;47.67;42.35;;;30.10;86.70;;;;;;1912932;75;21244;-81
2022/04/15 02:42:57;;;;;;;45.17;39.78;;;30.10;86.50;;;;;;1902875;75;21102;-81
2022/04/15 02:45:29;;;;;;;47.35;41.23;;;30.10;85.90;;;;;;1906281;75;21193;-82
2022/04/15 02:48:00;;;;;;;41.35;37.00;;;30.30;85.80;;;;;;1905422;75;21080;-82
2022/04/15 02:50:32;;;;;;;41.77;37.23;;;30.30;85.00;;;;;;1910035;74;21261;-81
2022/04/15 02:53:06;;;;;;;43.87;38.88;;;30.40;84.80;;;;;;1900623;75;21078;-83
2022/04/15 02:55:37;;;;;;;43.90;39.13;;;30.40;84.70;;;;;;1896992;75;21185;-82
2022/04/15 02:58:08;;;;;;;43.83;38.95;;;30.50;84.40;;;;;;1895740;73;21086;-82
2022/04/15 03:00:39;;;;;;;44.20;38.45;;;30.50;83.90;;;;;;1908522;75;21171;-82
2022/04/15 03:03:11;;;;;;;39.00;34.80;;;30.60;83.90;;;;;;1907429;75;21092;-82
2022/04/15 03:05:43;;;;;;;39.95;35.65;;;30.70;82.50;;;;;;1898062;75;21117;-83
2022/04/15 03:08:16;;;;;;;43.80;36.35;;;30.70;81.70;;;;;;1918167;74;21560;-81
2022/04/15 03:10:47;;;;;;;39.20;33.60;;;30.80;81.80;;;;;;1899065;74;21101;-82
2022/04/15 03:13:17;;;;;;;36.45;32.55;;;30.90;81.40;;;;;;1884885;75;21140;-83
2022/04/15 03:15:48;;;;;;;34.75;31.00;;;30.90;80.10;;;;;;1882204;74;21147;-82
2022/04/15 03:18:19;;;;;;;37.00;31.17;;;31.00;79.80;;;;;;1900034;75;21148;-82
2022/04/15 03:20:50;;;;;;;35.83;29.42;;;31.10;78.80;;;;;;1892090;75;21076;-82
2022/04/15 03:23:21;;;;;;;33.25;28.32;;;31.20;77.30;;;;;;1884276;75;21209;-83
2022/04/15 03:25:56;;;;;;;32.45;28.92;;;31.30;76.10;;;;;;1888972;75;21166;-83
2022/04/15 03:28:25;;;;;;;32.15;28.73;;;31.40;76.00;;;;;;1889996;75;21156;-82
2022/04/15 03:30:58;;;;;;;30.57;27.00;;;31.60;76.50;;;;;;1875887;75;21062;-83
2022/04/15 03:33:30;;;;;;;33.20;26.93;;;31.70;74.90;;;;;;1898790;75;21089;-83
2022/04/15 03:36:01;;;;;;;31.15;27.25;;;31.90;73.80;;;;;;1891298;75;21077;-82
2022/04/15 03:38:32;;;;;;;31.33;27.17;;;31.90;75.00;;;;;;1887541;74;21199;-83
2022/04/15 03:41:03;;;;;;;30.52;27.42;;;32.10;73.20;;;;;;1885342;75;21073;-83
2022/04/15 03:43:34;;;;;;;32.08;28.00;;;32.20;73.00;;;;;;1880930;74;21553;-81
2022/04/15 03:46:05;;;;;;;34.60;29.07;;;32.30;73.10;;;;;;1887072;75;21143;-82
2022/04/15 03:48:39;;;;;;;32.00;28.55;;;32.40;92.10;;;;;;1885403;75;21080;-82
2022/04/15 03:51:32;;;;;;;32.98;29.48;;;32.50;92.60;;;;;;1888342;75;21610;-82
2022/04/15 03:54:02;;;;;;;32.67;29.45;;;32.40;92.20;;;;;;1874449;75;21194;-83
2022/04/15 03:56:33;;;;;;;35.08;30.52;;;32.60;91.10;;;;;;1883600;75;21150;-82
2022/04/15 03:59:08;;;;;;;35.28;30.00;;;32.40;91.60;;;;;;1858721;76;21173;-82
2022/04/15 04:01:42;;;;;;;32.65;29.25;;;32.40;92.80;;;;;;1823238;76;21128;-82
2022/04/15 04:04:13;;;;;;;32.85;29.32;;;32.50;94.40;;;;;;1883369;75;21156;-83
2022/04/15 04:06:44;;;;;;;33.55;29.95;;;32.80;95.10;;;;;;1874582;75;21096;-82
2022/04/15 04:09:15;;;;;;;35.48;29.40;;;32.70;94.20;;;;;;1877563;75;21182;-83
2022/04/15 04:11:47;;;;;;;33.73;29.00;;;32.90;92.60;;;;;;1890431;75;21093;-83
2022/04/15 04:14:17;;;;;;;39.70;31.30;;;32.80;91.60;;;;;;1882002;75;21245;-82
2022/04/15 04:16:48;;;;;;;34.63;30.80;;;32.70;91.00;;;;;;1880006;75;21498;-82
2022/04/15 04:19:21;;;;;;;38.38;30.82;;;32.90;85.50;;;;;;1879856;75;21077;-83
2022/04/15 04:22:00;;;;;;;36.13;29.80;;;32.90;84.70;;;;;;1879836;75;21230;-83
2022/04/15 04:24:31;;;;;;;33.13;29.52;;;32.90;86.10;;;;;;1898780;75;21089;-82
2022/04/15 04:27:02;;;;;;;34.55;30.10;;;32.80;85.80;;;;;;1874444;75;21656;-84
2022/04/15 04:29:33;;;;;;;40.60;29.95;;;33.00;86.40;;;;;;1888211;74;21135;-82
2022/04/15 04:32:04;;;;;;;32.35;28.98;;;32.90;71.30;;;;;;1876948;75;21089;-83
2022/04/15 04:34:41;;;;;;;34.45;30.10;;;33.10;89.90;;;;;;1832898;78;21092;-83
2022/04/15 04:37:12;;;;;;;32.98;28.15;;;33.20;69.70;;;;;;1840037;77;21128;-83
2022/04/15 04:39:43;;;;;;;34.23;28.30;;;33.50;68.80;;;;;;1883191;75;21140;-82
2022/04/15 04:42:15;;;;;;;31.45;28.12;;;33.80;74.80;;;;;;1885795;75;21084;-82
2022/04/15 04:44:47;;;;;;;33.23;28.02;;;33.80;73.50;;;;;;1886287;75;21083;-82
2022/04/15 04:47:20;;;;;;;32.40;29.02;;;33.90;69.90;;;;;;1886580;75;21136;-83
2022/04/15 04:49:52;;;;;;;30.48;27.25;;;34.10;69.10;;;;;;1806384;78;21168;-83
2022/04/15 04:52:24;;;;;;;30.77;27.62;;;34.20;74.90;;;;;;1884857;75;21089;-83
2022/04/15 04:54:55;;;;;;;33.80;28.00;;;34.20;72.60;;;;;;1897765;75;21076;-82
2022/04/15 04:57:26;;;;;;;31.23;27.55;;;34.30;70.70;;;;;;1871332;75;21140;-82
2022/04/15 04:59:57;;;;;;;32.42;28.45;;;34.40;70.50;;;;;;1895193;75;21062;-83
2022/04/15 05:02:28;;;;;;;30.55;27.07;;;34.60;71.10;;;;;;1882093;75;21140;-83
2022/04/15 05:05:02;;;;;;;34.33;26.93;;;34.60;65.70;;;;;;1883672;75;21137;-82
2022/04/15 05:07:35;;;;;;;31.33;28.17;;;34.70;91.10;;;;;;1874348;74;21164;-82
2022/04/15 05:10:08;;;;;;;34.15;27.75;;;34.60;86.70;;;;;;1848078;76;21362;-82
2022/04/15 05:12:39;;;;;;;31.57;27.40;;;34.70;70.50;;;;;;1890357;75;21191;-84
2022/04/15 05:15:11;;;;;;;34.20;28.38;;;34.60;68.70;;;;;;1897311;75;22264;-84
2022/04/15 05:17:42;;;;;;;30.27;26.57;;;34.80;74.30;;;;;;1895980;75;21878;-84
2022/04/15 05:20:13;;;;;;;31.12;27.77;;;35.00;78.40;;;;;;1897073;75;21740;-83
2022/04/15 05:22:44;;;;;;;31.93;26.23;;;34.90;87.80;;;;;;1896465;75;21865;-85
2022/04/15 05:25:17;;;;;;;30.17;26.97;;;;;;;;;;1895862;74;21073;-82
2022/04/15 05:27:49;;;;;;;29.07;25.95;;;;;;;;;;1891135;75;21173;-83
2022/04/15 05:30:19;;;;;;;34.00;27.67;;;35.20;73.70;;;;;;1897217;75;21645;-83
2022/04/15 05:32:59;;;;;;;31.65;27.77;;;35.30;58.30;;;;;;1902411;74;21072;-83
2022/04/15 05:35:31;;;;;;;33.80;27.17;;;35.40;58.60;;;;;;1909948;74;21128;-82
2022/04/15 05:38:02;;;;;;;29.35;26.33;;;35.40;58.60;;;;;;1908285;74;21191;-83
2022/04/15 05:40:35;;;;;;;29.23;26.17;;;35.40;58.30;;;;;;1849398;76;21189;-80
2022/04/15 05:43:05;;;;;;;29.75;25.05;;;35.40;57.60;;;;;;1902483;75;21076;-81
2022/04/15 05:45:37;;;;;;;27.15;24.10;;;35.40;55.80;;;;;;1894894;75;21080;-82
2022/04/15 05:48:08;;;;;;;29.30;25.05;;;35.40;55.80;;;;;;1893391;75;21215;-82
2022/04/15 05:50:39;;;;;;;30.20;26.85;;;35.50;58.00;;;;;;1837092;76;21116;-84
2022/04/15 05:53:13;;;;;;;31.25;27.00;;;36.80;58.00;;;;;;1837853;76;21076;-82
2022/04/15 05:55:44;;;;;;;30.25;26.27;;;35.70;57.40;;;;;;1891583;75;21150;-82
2022/04/15 05:58:15;;;;;;;31.37;28.00;;;35.80;57.00;;;;;;1906474;74;21118;-84
2022/04/15 06:00:47;;;;;;;30.77;27.52;;;35.80;57.90;;;;;;1898096;73;21229;-84
2022/04/15 06:03:20;;;;;;;30.37;25.25;;;35.90;56.30;;;;;;1892781;75;21234;-84
2022/04/15 06:05:51;;;;;;;28.38;25.48;;;35.90;56.70;;;;;;1910104;75;21231;-83
2022/04/15 06:08:22;;;;;;;29.23;25.72;;;35.90;55.20;;;;;;1896219;75;21151;-84
2022/04/15 06:10:56;;;;;;;38.60;25.25;;;36.00;52.80;;;;;;1897327;75;21173;-84
2022/04/15 06:13:27;;;;;;;27.37;23.98;;;36.00;53.10;;;;;;1836273;77;21168;-83
2022/04/15 06:15:58;;;;;;;30.27;24.27;;;35.90;51.80;;;;;;1851222;77;21178;-83
2022/04/15 06:18:34;;;;;;;27.45;24.57;;;35.90;52.40;;;;;;1881195;75;21093;-83
2022/04/15 06:21:05;;;;;;;25.57;22.98;;;35.80;52.60;;;;;;1885269;75;21065;-82
2022/04/15 06:23:35;;;;;;;24.20;21.55;;;35.80;50.80;;;;;;1886390;75;21573;-83
2022/04/15 06:26:07;;;;;;;25.60;22.98;;;35.80;50.00;;;;;;1893872;75;21081;-82
2022/04/15 06:28:38;;;;;;;27.22;23.27;;;35.80;50.80;;;;;;1860862;75;21088;-84
2022/04/15 06:31:11;;;;;;;29.75;23.62;;;35.80;51.00;;;;;;1835714;78;21081;-84
2022/04/15 06:33:45;;;;;;;27.55;22.50;;;35.80;50.60;;;;;;1848496;76;21206;-83
2022/04/15 06:36:16;;;;;;;25.25;22.65;;;35.80;49.50;;;;;;1888010;75;21091;-81
2022/04/15 06:38:50;;;;;;;23.25;19.98;;;35.70;49.60;;;;;;1887937;75;21190;-83
2022/04/15 06:41:20;;;;;;;25.10;21.93;;;35.80;49.20;;;;;;1871378;75;21124;-83
2022/04/15 06:43:53;;;;;;;24.87;22.20;;;35.80;49.60;;;;;;1893813;75;21182;-83
2022/04/15 06:46:24;;;;;;;27.05;23.45;;;35.90;50.50;;;;;;1896441;75;21213;-84
2022/04/15 06:48:55;;;;;;;24.65;22.13;;;35.90;50.20;;;;;;1898294;75;21195;-85
2022/04/15 06:51:28;;;;;;;24.45;20.92;;;35.90;49.00;;;;;;1891565;75;21157;-83
2022/04/15 06:53:59;;;;;;;23.95;21.33;;;35.90;49.80;;;;;;1881420;75;21081;-82
2022/04/15 06:56:29;;;;;;;25.90;23.07;;;35.90;49.50;;;;;;1883659;75;21144;-83
2022/04/15 06:59:02;;;;;;;29.65;24.65;;;35.90;49.10;;;;;;1885760;75;21657;-82
2022/04/15 07:01:35;;;;;;;25.90;23.27;;;35.90;50.50;;;;;;1905500;75;21148;-82
2022/04/15 07:04:06;;;;;;;28.02;24.77;;;36.00;52.40;;;;;;1895787;75;21061;-82
2022/04/15 07:06:36;;;;;;;29.07;25.43;;;36.00;51.20;;;;;;1895409;74;21737;-83
2022/04/15 07:09:07;;;;;;;27.62;24.72;;;36.00;51.00;;;;;;1888468;75;21092;-83
2022/04/15 07:11:38;;;;;;;30.65;24.87;;;36.10;50.70;;;;;;1896387;75;21069;-83
2022/04/15 07:14:12;;;;;;;27.48;24.55;;;36.00;51.20;;;;;;1881855;75;21159;-84
2022/04/15 07:16:43;;;;;;;29.85;26.65;;;36.00;50.80;;;;;;1906705;75;21120;-84
2022/04/15 07:19:14;;;;;;;31.55;26.77;;;36.00;51.00;;;;;;1899688;75;21181;-84
2022/04/15 07:21:47;;;;;;;28.20;25.23;;;36.00;50.90;;;;;;1902506;75;21117;-84
2022/04/15 07:24:18;;;;;;;29.67;26.48;;;36.00;51.80;;;;;;1874882;74;21061;-82
2022/04/15 07:26:51;;;;;;;32.33;26.77;;;36.00;51.10;;;;;;1868174;75;21069;-83
2022/04/15 07:29:25;;;;;;;29.35;26.30;;;36.00;50.90;;;;;;1864126;75;21057;-83
2022/04/15 07:31:55;;;;;;;30.68;26.02;;;36.00;50.70;;;;;;1879601;75;21222;-83
2022/04/15 07:34:26;;;;;;;31.85;26.57;;;36.00;50.70;;;;;;1848305;76;21105;-82
2022/04/15 07:36:59;;;;;;;29.77;26.62;;;36.00;50.50;;;;;;1897926;75;21255;-83
2022/04/15 07:39:30;;;;;;;28.77;25.95;;;35.90;50.20;;;;;;1910124;75;21465;-84
2022/04/15 07:42:00;;;;;;;33.40;26.90;;;35.90;51.00;;;;;;1887128;75;21174;-83
2022/04/15 07:44:33;;;;;;;28.85;25.85;;;36.00;50.70;;;;;;1889690;75;21207;-85
2022/04/15 07:47:06;;;;;;;27.62;24.72;;;36.00;50.50;;;;;;1891069;75;21064;-83
2022/04/15 07:49:38;;;;;;;29.98;26.95;;;36.00;50.90;;;;;;1901414;75;21081;-83
2022/04/15 07:52:09;;;;;;;35.90;32.10;;;36.10;51.80;;;;;;1901356;75;21081;-84
2022/04/15 07:54:42;;;;;;;28.75;25.75;;;36.10;51.00;;;;;;1901862;75;21185;-83
2022/04/15 07:57:13;;;;;;;27.42;23.15;;;36.00;50.00;;;;;;1898571;75;21080;-82
2022/04/15 07:59:44;;;;;;;24.90;22.50;;;36.00;49.80;;;;;;1892697;75;21175;-82
2022/04/15 08:02:17;;;;;;;27.85;23.90;;;36.00;49.80;;;;;;1878969;75;21081;-83
2022/04/15 08:04:48;;;;;;;26.05;23.10;;;36.00;49.50;;;;;;1883344;75;21617;-82
2022/04/15 08:07:19;;;;;;;27.35;24.23;;;36.00;49.70;;;;;;1910045;75;21113;-83
2022/04/15 08:09:50;;;;;;;30.37;24.32;;;36.00;53.30;;;;;;1858690;76;21208;-83
2022/04/15 08:12:21;;;;;;;34.08;30.55;;;36.00;50.20;;;;;;1899788;75;21108;-83
2022/04/15 08:14:52;;;;;;;38.02;33.13;;;36.10;50.10;;;;;;1893074;74;21174;-83
2022/04/15 08:17:23;;;;;;;33.73;29.52;;;36.10;50.00;;;;;;1923840;74;21056;-84
2022/04/15 08:19:54;;;;;;;26.85;23.50;;;36.10;49.60;;;;;;1909575;74;21134;-83
2022/04/15 08:22:26;;;;;;;27.17;24.27;;;36.10;49.90;;;;;;1918021;73;21095;-84
2022/04/15 08:24:57;;;;;;;28.62;23.12;;;36.10;49.90;;;;;;1874628;75;21100;-85
2022/04/15 08:27:27;;;;;;;26.57;22.02;;;36.10;50.80;;;;;;1867703;75;21187;-84
2022/04/15 08:29:59;;;;;;;26.02;23.25;;;36.10;49.70;;;;;;1887884;76;21071;-84
2022/04/15 08:32:33;;;;;;;27.13;23.98;;;36.10;49.40;;;;;;1864224;76;21092;-84
2022/04/15 08:35:05;;;;;;;26.97;24.10;;;36.10;50.10;;;;;;1871391;76;21144;-84
2022/04/15 08:37:36;;;;;;;25.80;23.07;;;36.10;50.50;;;;;;1929824;74;21135;-83
2022/04/15 08:40:08;;;;;;;27.58;24.85;;;36.00;49.90;;;;;;1911423;74;21091;-83
2022/04/15 08:42:41;;;;;;;25.48;22.77;;;36.00;50.50;;;;;;1851890;77;21190;-82
2022/04/15 08:45:13;;;;;;;26.73;24.05;;;36.00;50.20;;;;;;1906700;74;21185;-83
2022/04/15 08:47:45;;;;;;;32.45;23.83;;;36.00;51.10;;;;;;1901707;74;21171;-83
2022/04/15 08:50:19;;;;;;;28.30;24.20;;;36.00;50.80;;;;;;1914927;74;21213;-83
2022/04/15 08:52:54;;;;;;;28.07;24.92;;;36.00;50.40;;;;;;1922403;74;21189;-85
2022/04/15 08:55:27;;;;;;;27.50;24.80;;;36.00;50.80;;;;;;1907828;74;21145;-85
2022/04/15 08:58:08;;;;;;;28.73;25.48;;;36.00;50.90;;;;;;1916825;74;21095;-83
2022/04/15 09:00:43;;;;;;;29.87;26.82;;;36.00;50.90;;;;;;1906540;74;21128;-83
2022/04/15 09:03:15;;;;;;;29.07;26.15;;;35.90;51.40;;;;;;1923189;74;21220;-84
2022/04/15 09:05:54;;;;;;;30.15;26.25;;;35.90;51.70;;;;;;1906635;74;21122;-82
2022/04/15 09:08:25;;;;;;;30.35;26.45;;;35.90;51.70;;;;;;1907363;74;21554;-82
2022/04/15 09:10:59;;;;;;;30.33;27.13;;;35.90;52.10;;;;;;1892053;74;21153;-84
2022/04/15 09:13:38;;;;;;;29.60;25.90;;;35.90;52.10;;;;;;1897986;74;21084;-83
2022/04/15 09:16:08;;;;;;;30.10;26.40;;;35.80;52.30;;;;;;1905610;74;21081;-83
2022/04/15 09:18:42;;;;;;;29.63;26.50;;;35.80;52.50;;;;;;1918205;74;21142;-83
2022/04/15 09:21:16;;;;;;;28.83;24.60;;;35.70;52.90;;;;;;1898422;74;21054;-83
2022/04/15 09:23:49;;;;;;;28.67;25.82;;;35.70;52.80;;;;;;1897567;74;21058;-84
2022/04/15 09:26:21;;;;;;;28.70;25.80;;;35.60;53.10;;;;;;1910092;74;21090;-83
2022/04/15 09:29:00;;;;;;;29.42;26.37;;;35.60;53.20;;;;;;1912844;74;21241;-84
2022/04/15 09:31:33;;;;;;;30.82;25.25;;;35.60;53.30;;;;;;1911400;74;21084;-83
2022/04/15 09:34:07;;;;;;;28.87;25.92;;;35.60;53.30;;;;;;1923918;74;21150;-84
2022/04/15 09:36:46;;;;;;;27.67;24.60;;;35.60;53.40;;;;;;1913642;74;21084;-83
2022/04/15 09:39:22;;;;;;;28.47;24.57;;;35.60;53.30;;;;;;1897435;75;21123;-84
2022/04/15 09:41:54;;;;;;;26.85;23.80;;;35.50;52.80;;;;;;1913845;74;21079;-82
2022/04/15 09:44:31;;;;;;;27.98;25.00;;;35.50;52.80;;;;;;1930916;74;21134;-84
2022/04/15 09:46:57;;;;;;;28.50;25.57;;;35.50;52.80;;;;;;1930341;74;21876;-82
2022/04/15 09:49:35;;;;;;;28.55;25.60;;;35.50;52.70;;;;;;1922389;74;21638;-83
2022/04/15 09:52:11;;;;;;;28.62;25.72;;;35.50;52.80;;;;;;1915564;74;21060;-84
2022/04/15 09:54:43;;;;;;;29.67;24.65;;;35.50;52.80;;;;;;1898365;74;21125;-83
2022/04/15 09:57:16;;;;;;;28.83;25.85;;;35.40;53.30;;;;;;1897477;75;21093;-83
2022/04/15 09:59:50;;;;;;;27.90;25.17;;;35.40;52.80;;;;;;1891071;75;21158;-82
2022/04/15 10:02:23;;;;;;;28.35;25.32;;;35.50;52.90;;;;;;1897636;75;21094;-83
2022/04/15 10:04:56;;;;;;;28.45;25.37;;;35.50;53.10;;;;;;1912133;74;21131;-84
2022/04/15 10:07:35;;;;;;;27.52;24.80;;;35.40;52.80;;;;;;1890804;74;21520;-83
2022/04/15 10:10:07;;;;;;;29.05;26.15;;;35.40;52.80;;;;;;1927130;74;21157;-83
2022/04/15 10:12:41;;;;;;;28.75;25.65;;;35.30;53.10;;;;;;1917823;74;21143;-82
2022/04/15 10:15:12;;;;;;;34.20;26.77;;;35.30;53.60;;;;;;1890980;76;21131;-84
2022/04/15 10:17:45;;;;;;;29.10;25.02;;;35.30;54.00;;;;;;1897448;75;21142;-83
2022/04/15 10:20:20;;;;;;;29.63;23.73;;;35.30;53.90;;;;;;1890997;76;21084;-83
2022/04/15 10:22:59;;;;;;;27.70;24.52;;;35.20;53.70;;;;;;1908812;74;21087;-84
2022/04/15 10:25:32;;;;;;;27.37;24.47;;;35.20;53.90;;;;;;1930254;74;21129;-82
2022/04/15 10:28:05;;;;;;;28.15;25.20;;;35.20;54.00;;;;;;1924330;74;21611;-82
2022/04/15 10:30:39;;;;;;;27.80;24.82;;;35.10;54.00;;;;;;1928859;74;21617;-84
2022/04/15 10:33:09;;;;;;;28.85;25.85;;;35.10;54.20;;;;;;1905441;74;21527;-83
2022/04/15 10:35:42;;;;;;;28.30;25.27;;;35.10;54.50;;;;;;1930136;74;21079;-83
2022/04/15 10:38:14;;;;;;;29.67;25.17;;;35.00;54.60;;;;;;1916993;74;21091;-84
2022/04/15 10:40:45;;;;;;;31.25;24.43;;;35.10;54.40;;;;;;1912900;74;21153;-84
2022/04/15 10:43:22;;;;;;;27.32;24.52;;;35.00;54.60;;;;;;1921350;74;21126;-83
2022/04/15 10:45:57;;;;;;;28.52;25.68;;;35.00;54.50;;;;;;1928115;74;21134;-83
2022/04/15 10:48:34;;;;;;;29.35;25.12;;;35.00;54.90;;;;;;1916231;74;21103;-84
2022/04/15 10:51:10;;;;;;;26.75;23.98;;;35.00;54.80;;;;;;1921750;74;21582;-83
2022/04/15 10:53:42;;;;;;;27.55;24.80;;;35.00;54.90;;;;;;1919962;74;21621;-83
2022/04/15 10:56:14;;;;;;;27.90;24.90;;;34.90;54.90;;;;;;1929636;74;21614;-83
2022/04/15 11:01:13;;;;;;;26.97;23.65;;;34.90;55.10;;;;;;1906611;74;21136;-82
2022/04/15 11:01:22;;;;;;;30.48;24.75;;;34.90;54.90;;;;;;1921170;74;21146;-83
2022/04/15 11:03:55;;;;;;;29.80;24.40;;;34.80;55.20;;;;;;1929687;74;21135;-82
2022/04/15 11:06:29;;;;;;;29.35;24.67;;;34.80;55.20;;;;;;1893580;74;21502;-83
2022/04/15 11:09:03;;;;;;;29.27;26.27;;;34.80;55.40;;;;;;1920929;74;21616;-83
2022/04/15 11:11:36;;;;;;;28.35;24.92;;;34.70;55.60;;;;;;1921678;74;21173;-82
2022/04/15 11:14:11;;;;;;;27.70;24.77;;;34.70;55.40;;;;;;1922164;74;21146;-83
2022/04/15 11:16:42;;;;;;;30.35;24.82;;;34.70;55.60;;;;;;1917009;74;21101;-83
2022/04/15 11:19:17;;;;;;;29.82;24.95;;;34.70;55.60;;;;;;1892574;75;21177;-82
2022/04/15 11:21:53;;;;;;;29.55;24.25;;;34.70;55.70;;;;;;1901096;75;21073;-83
2022/04/15 11:24:23;;;;;;;33.33;26.50;;;34.60;55.60;;;;;;1899359;75;21533;-82
2022/04/15 11:27:01;;;;;;;30.10;25.92;;;34.60;55.70;;;;;;1901682;75;21129;-83
2022/04/15 11:29:34;;;;;;;30.52;27.22;;;34.60;55.90;;;;;;1901700;75;21093;-82
2022/04/15 11:32:08;;;;;;;29.72;25.92;;;34.60;56.20;;;;;;1896776;75;21150;-82
2022/04/15 11:34:38;;;;;;;29.35;25.27;;;34.50;56.40;;;;;;1872259;76;21087;-82
2022/04/15 11:37:11;;;;;;;33.10;26.00;;;34.40;56.20;;;;;;1876867;75;21177;-83
2022/04/15 11:39:46;;;;;;;27.77;24.87;;;34.40;56.30;;;;;;1901237;75;21116;-83
2022/04/15 11:42:17;;;;;;;28.80;24.12;;;34.40;56.70;;;;;;1901605;75;21084;-83
2022/04/15 11:44:48;;;;;;;29.35;25.97;;;34.40;57.00;;;;;;1893637;75;21533;-83
2022/04/15 11:47:20;;;;;;;35.23;27.15;;;34.30;57.00;;;;;;1877712;75;21084;-83
2022/04/15 11:52:44;;;;;;;29.23;26.10;;;34.30;57.40;;;;;;1828841;76;21096;-83
2022/04/15 11:55:19;;;;;;;28.12;25.20;;;34.30;57.50;;;;;;1847375;77;21213;-84
2022/04/15 11:57:52;;;;;;;32.15;25.35;;;34.20;57.70;;;;;;1901176;75;21104;-82
2022/04/15 12:00:23;;;;;;;29.23;24.55;;;34.20;57.70;;;;;;1901769;75;21085;-83
2022/04/15 12:02:56;;;;;;;33.38;26.33;;;34.20;57.90;;;;;;1901544;75;21147;-82
2022/04/15 12:05:29;;;;;;;31.48;26.55;;;34.20;58.10;;;;;;1901988;75;21602;-83
2022/04/15 12:08:01;;;;;;;28.62;24.77;;;34.20;58.10;;;;;;1911416;75;21132;-83
2022/04/15 12:10:36;;;;;;;28.07;25.05;;;34.10;58.10;;;;;;1866337;76;21080;-83
2022/04/15 12:13:09;;;;;;;29.30;25.52;;;34.00;58.20;;;;;;1884332;75;21082;-82
2022/04/15 12:15:40;;;;;;;32.40;24.98;;;34.00;58.40;;;;;;1865583;75;21580;-82
2022/04/15 12:18:12;;;;;;;29.27;26.27;;;34.00;58.50;;;;;;1874799;76;21077;-84
2022/04/15 12:20:44;;;;;;;28.62;25.23;;;34.00;58.60;;;;;;1891434;75;21202;-82
2022/04/15 12:23:16;;;;;;;31.55;25.55;;;33.90;58.60;;;;;;1878202;76;21056;-84
2022/04/15 12:26:23;;;;;;;29.35;25.68;;;33.90;58.90;;;;;;1867990;76;21093;-82
2022/04/15 12:30:56;;;;;;;31.07;25.70;;;33.90;59.10;;;;;;1909573;75;21120;-83
2022/04/15 12:33:27;;;;;;;30.62;26.07;;;33.90;59.10;;;;;;1911392;75;21139;-83
2022/04/15 12:36:01;;;;;;;29.75;26.60;;;33.80;59.30;;;;;;1874742;76;21147;-82
2022/04/15 12:38:35;;;;;;;32.15;25.68;;;33.80;59.20;;;;;;1905102;74;21170;-83
2022/04/15 12:41:11;;;;;;;29.90;26.90;;;33.80;59.40;;;;;;1879228;75;21540;-83
2022/04/15 12:43:41;;;;;;;31.73;27.30;;;33.80;59.50;;;;;;1880683;75;21077;-84
2022/04/15 12:46:16;;;;;;;30.45;26.62;;;33.80;59.50;;;;;;1878902;75;21195;-83
2022/04/15 12:48:50;;;;;;;34.00;27.22;;;33.70;59.60;;;;;;1891188;75;21148;-83
2022/04/15 12:51:22;;;;;;;29.80;26.57;;;33.70;59.40;;;;;;1884439;74;21179;-83
2022/04/15 12:53:57;;;;;;;29.05;26.12;;;33.70;59.40;;;;;;1893470;75;21077;-82
2022/04/15 12:56:28;;;;;;;28.65;25.80;;;33.70;59.40;;;;;;1900226;75;21143;-84
2022/04/15 12:59:02;;;;;;;29.92;26.57;;;33.70;59.40;;;;;;1900359;75;21532;-83